Fulton, Missouri
Current Conditions -  °F | °C
As of 11:54 AM on Friday 21 Nov 2014 (Local Time) from KCOU Reporting Station
Overcast Overcast  
Wind Chill:   Ceiling: 3000
Heat Index:   Visibility: 10mi
Dew Point: -6°   Wind: 13mph
Humidity: 49%   Direction: 140°SE
Pressure: 30.28"   Gusts: NA
Location:  38.85°N, 91.95°W
Report Text: KCOU 211754Z 14011KT 10SM OVC030 04/M06 A3028 RMK AO2 SLP263 T00391061 10039 21050 56013
Loading
Personal Weather Stations






























Interactive Weather Map New forecast layout! Learn more

10-Day Weather Forecast

Advertisements
Track Severe Weather on mobile